createdAt,value
2022-07-27T00:00:00.877Z,15.43
2022-07-27T00:01:00.912Z,15.44
2022-07-27T00:02:00.906Z,15.44
2022-07-27T00:03:00.851Z,15.43
2022-07-27T00:04:00.860Z,15.42
2022-07-27T00:05:00.891Z,15.40
2022-07-27T00:06:00.792Z,15.39
2022-07-27T00:07:00.802Z,15.39
2022-07-27T00:08:00.794Z,15.39
2022-07-27T00:09:00.750Z,15.35
2022-07-27T00:10:00.744Z,15.36
2022-07-27T00:11:00.733Z,15.36
2022-07-27T00:12:00.746Z,15.33
2022-07-27T00:13:00.723Z,15.33
2022-07-27T00:14:00.691Z,15.31
2022-07-27T00:15:00.701Z,15.28
2022-07-27T00:16:00.750Z,15.25
2022-07-27T00:17:00.689Z,15.24
2022-07-27T00:18:00.658Z,15.22
2022-07-27T00:19:00.696Z,15.21
2022-07-27T00:20:00.641Z,15.19
2022-07-27T00:21:00.629Z,15.19
2022-07-27T00:22:00.614Z,15.17
2022-07-27T00:23:00.602Z,15.11
2022-07-27T00:24:00.582Z,15.11
2022-07-27T00:25:00.593Z,15.09
2022-07-27T00:26:00.553Z,15.07
2022-07-27T00:27:00.562Z,15.06
2022-07-27T00:28:00.549Z,15.04
2022-07-27T00:29:00.541Z,15.02
2022-07-27T00:30:00.542Z,14.99
2022-07-27T00:31:00.647Z,14.97
2022-07-27T00:32:00.501Z,14.94
2022-07-27T00:33:00.503Z,14.94
2022-07-27T00:34:00.472Z,14.92
2022-07-27T00:35:00.473Z,14.89
2022-07-27T00:36:00.467Z,14.89
2022-07-27T00:37:00.446Z,14.88
2022-07-27T00:38:00.450Z,14.86
2022-07-27T00:39:00.436Z,14.85
2022-07-27T00:40:00.407Z,14.84
2022-07-27T00:41:00.425Z,14.82
2022-07-27T00:42:00.385Z,14.82
2022-07-27T00:43:00.445Z,14.81
2022-07-27T00:44:00.366Z,14.82
2022-07-27T00:45:00.356Z,14.82
2022-07-27T00:46:04.488Z,14.79
2022-07-27T00:47:00.363Z,14.79
2022-07-27T00:48:00.313Z,14.79
2022-07-27T00:49:00.344Z,14.79
2022-07-27T00:50:00.297Z,14.78
2022-07-27T00:51:00.309Z,14.79
2022-07-27T00:52:00.267Z,14.79
2022-07-27T00:53:00.277Z,14.81
2022-07-27T00:54:00.247Z,14.79
2022-07-27T00:55:00.257Z,14.77
2022-07-27T00:56:00.228Z,14.77
2022-07-27T00:57:00.219Z,14.70
2022-07-27T00:58:00.199Z,14.70
2022-07-27T00:59:00.526Z,14.70
2022-07-27T01:00:00.217Z,14.70
2022-07-27T01:01:00.199Z,14.70
2022-07-27T01:02:00.279Z,14.72
2022-07-27T01:03:02.517Z,14.73
2022-07-27T01:04:01.137Z,14.77
2022-07-27T01:05:00.213Z,14.78
2022-07-27T01:06:01.877Z,14.78
2022-07-27T01:07:00.105Z,14.77
2022-07-27T01:08:00.100Z,14.78
2022-07-27T01:09:00.090Z,14.79
2022-07-27T01:10:00.169Z,14.81
2022-07-27T01:11:00.089Z,14.81
2022-07-27T01:12:00.818Z,14.81
2022-07-27T01:13:00.058Z,14.84
2022-07-27T01:14:00.019Z,14.81
2022-07-27T01:15:00.040Z,14.81
2022-07-27T01:16:00.081Z,14.78
2022-07-27T01:17:00.006Z,14.78
2022-07-27T01:17:59.979Z,14.73
2022-07-27T01:18:59.998Z,14.73
2022-07-27T01:19:59.958Z,14.72
2022-07-27T01:20:59.978Z,14.73
2022-07-27T01:21:59.937Z,14.77
2022-07-27T01:22:59.929Z,14.77
2022-07-27T01:23:59.918Z,14.77
2022-07-27T01:24:59.918Z,14.73
2022-07-27T01:25:59.907Z,14.70
2022-07-27T01:26:59.890Z,14.70
2022-07-27T01:27:59.878Z,14.70
2022-07-27T01:28:59.878Z,14.70
2022-07-27T01:29:59.851Z,14.69
2022-07-27T01:30:59.850Z,14.68
2022-07-27T01:31:59.838Z,14.68
2022-07-27T01:32:59.810Z,14.66
2022-07-27T01:33:59.809Z,14.68
2022-07-27T01:34:59.822Z,14.68
2022-07-27T01:35:59.789Z,14.66
2022-07-27T01:36:59.781Z,14.65
2022-07-27T01:37:59.751Z,14.62
2022-07-27T01:38:59.750Z,14.62
2022-07-27T01:39:59.742Z,14.60
2022-07-27T01:40:59.734Z,14.60
2022-07-27T01:41:59.709Z,14.58
2022-07-27T01:42:59.702Z,14.58
2022-07-27T01:43:59.719Z,14.55
2022-07-27T01:44:59.690Z,14.54
2022-07-27T01:45:59.699Z,14.51
2022-07-27T01:46:59.661Z,14.51
2022-07-27T01:47:59.651Z,14.48
2022-07-27T01:48:59.716Z,14.47
2022-07-27T01:49:59.644Z,14.47
2022-07-27T01:50:59.621Z,14.47
2022-07-27T01:51:59.630Z,14.44
2022-07-27T01:52:59.603Z,14.43
2022-07-27T01:53:59.586Z,14.41
2022-07-27T01:54:59.582Z,14.41
2022-07-27T01:55:59.555Z,14.37
2022-07-27T01:56:59.555Z,14.37
2022-07-27T01:57:59.563Z,14.37
2022-07-27T01:58:59.537Z,14.40
2022-07-27T01:59:59.514Z,14.40
2022-07-27T02:00:59.541Z,14.36
2022-07-27T02:01:59.563Z,14.36
2022-07-27T02:02:59.506Z,14.35
2022-07-27T02:03:59.477Z,14.33
2022-07-27T02:04:59.582Z,14.32
2022-07-27T02:05:59.455Z,14.30
2022-07-27T02:06:59.436Z,14.28
2022-07-27T02:07:59.440Z,14.26
2022-07-27T02:08:59.427Z,14.25
2022-07-27T02:09:59.402Z,14.23
2022-07-27T02:10:59.398Z,14.22
2022-07-27T02:11:59.374Z,14.22
2022-07-27T02:12:59.390Z,14.20
2022-07-27T02:13:59.374Z,14.20
2022-07-27T02:14:59.443Z,14.18
2022-07-27T02:16:00.395Z,14.20
2022-07-27T02:16:59.330Z,14.18
2022-07-27T02:17:59.340Z,14.18
2022-07-27T02:18:59.351Z,14.15
2022-07-27T02:20:00.875Z,14.15
2022-07-27T02:20:59.440Z,14.12
2022-07-27T02:21:59.266Z,14.14
2022-07-27T02:22:59.255Z,14.12
2022-07-27T02:23:59.277Z,14.10
2022-07-27T02:24:59.247Z,14.08
2022-07-27T02:25:59.213Z,14.08
2022-07-27T02:26:59.240Z,14.05
2022-07-27T02:27:59.207Z,14.04
2022-07-27T02:28:59.219Z,14.04
2022-07-27T02:29:59.178Z,14.04
2022-07-27T02:30:59.166Z,14.04
2022-07-27T02:31:59.146Z,14.03
2022-07-27T02:32:59.191Z,14.00
2022-07-27T02:33:59.159Z,13.97
2022-07-27T02:34:59.127Z,13.97
2022-07-27T02:35:59.129Z,13.96
2022-07-27T02:36:59.107Z,13.95
2022-07-27T02:37:59.081Z,13.95
2022-07-27T02:38:59.107Z,13.93
2022-07-27T02:39:59.058Z,13.93
2022-07-27T02:40:59.080Z,13.93
2022-07-27T02:41:59.049Z,13.92
2022-07-27T02:42:59.038Z,13.89
2022-07-27T02:43:59.038Z,13.89
2022-07-27T02:44:59.011Z,13.89
2022-07-27T02:45:59.029Z,13.87
2022-07-27T02:46:58.993Z,13.87
2022-07-27T02:47:58.972Z,13.89
2022-07-27T02:48:59.043Z,13.86
2022-07-27T02:49:58.970Z,13.87
2022-07-27T02:50:58.959Z,13.89
2022-07-27T02:51:58.927Z,13.86
2022-07-27T02:52:58.966Z,13.85
2022-07-27T02:53:58.920Z,13.85
2022-07-27T02:54:59.051Z,13.83
2022-07-27T02:55:58.898Z,13.81
2022-07-27T02:56:58.891Z,13.79
2022-07-27T02:57:58.858Z,13.77
2022-07-27T02:58:58.851Z,13.75
2022-07-27T02:59:58.838Z,13.75
2022-07-27T03:00:59.012Z,13.74
2022-07-27T03:01:58.917Z,13.74
2022-07-27T03:02:58.825Z,13.70
2022-07-27T03:03:58.845Z,13.68
2022-07-27T03:04:58.811Z,13.65
2022-07-27T03:05:58.792Z,13.63
2022-07-27T03:06:58.759Z,13.63
2022-07-27T03:07:58.773Z,13.62
2022-07-27T03:08:58.732Z,13.62
2022-07-27T03:09:58.743Z,13.59
2022-07-27T03:10:58.730Z,13.59
2022-07-27T03:11:58.710Z,13.56
2022-07-27T03:12:58.691Z,13.54
2022-07-27T03:13:58.690Z,13.52
2022-07-27T03:14:58.698Z,13.53
2022-07-27T03:15:58.730Z,13.53
2022-07-27T03:16:58.643Z,13.53
2022-07-27T03:17:58.656Z,13.53
2022-07-27T03:18:58.640Z,13.56
2022-07-27T03:19:58.630Z,13.54
2022-07-27T03:20:58.862Z,13.54
2022-07-27T03:21:58.626Z,13.56
2022-07-27T03:22:58.611Z,13.57
2022-07-27T03:23:58.582Z,13.56
2022-07-27T03:24:58.562Z,13.57
2022-07-27T03:25:58.554Z,13.56
2022-07-27T03:26:58.543Z,13.57
2022-07-27T03:28:03.788Z,13.56
2022-07-27T03:28:59.512Z,13.56
2022-07-27T03:29:58.523Z,13.56
2022-07-27T03:30:58.527Z,13.56
2022-07-27T03:31:58.511Z,13.53
2022-07-27T03:32:59.037Z,13.56
2022-07-27T03:33:58.463Z,13.56
2022-07-27T03:34:58.610Z,13.53
2022-07-27T03:35:58.443Z,13.54
2022-07-27T03:36:58.435Z,13.54
2022-07-27T03:37:58.423Z,13.52
2022-07-27T03:39:00.745Z,13.52
2022-07-27T03:39:59.397Z,13.49
2022-07-27T03:40:58.385Z,13.47
2022-07-27T03:41:58.451Z,13.46
2022-07-27T03:42:58.358Z,13.46
2022-07-27T03:43:58.368Z,13.44
2022-07-27T03:44:58.335Z,13.44
2022-07-27T03:45:58.423Z,13.44
2022-07-27T03:46:58.323Z,13.42
2022-07-27T03:47:58.325Z,13.41
2022-07-27T03:48:58.350Z,13.39
2022-07-27T03:49:58.287Z,13.38
2022-07-27T03:50:58.268Z,13.38
2022-07-27T03:51:58.276Z,13.37
2022-07-27T03:52:58.247Z,13.35
2022-07-27T03:53:58.263Z,13.33
2022-07-27T03:54:58.228Z,13.30
2022-07-27T03:55:58.228Z,13.28
2022-07-27T03:56:58.228Z,13.27
2022-07-27T03:57:58.208Z,13.27
2022-07-27T03:58:58.190Z,13.23
2022-07-27T03:59:58.187Z,13.22
2022-07-27T04:00:58.229Z,13.20
2022-07-27T04:01:58.212Z,13.19
2022-07-27T04:02:58.196Z,13.16
2022-07-27T04:03:58.136Z,13.16
2022-07-27T04:04:58.116Z,13.12
2022-07-27T04:05:58.196Z,13.15
2022-07-27T04:06:58.109Z,13.15
2022-07-27T04:07:58.106Z,13.15
2022-07-27T04:09:13.775Z,13.13
2022-07-27T04:09:59.106Z,13.11
2022-07-27T04:10:58.050Z,13.09
2022-07-27T04:11:58.039Z,13.08
2022-07-27T04:12:58.105Z,13.04
2022-07-27T04:13:58.349Z,13.03
2022-07-27T04:14:58.014Z,13.03
2022-07-27T04:15:58.095Z,13.01
2022-07-27T04:16:58.057Z,13.03
2022-07-27T04:17:58.167Z,13.03
2022-07-27T04:18:57.976Z,12.98
2022-07-27T04:19:58.046Z,13.01
2022-07-27T04:20:58.002Z,12.98
2022-07-27T04:21:57.964Z,12.97
2022-07-27T04:22:57.935Z,12.97
2022-07-27T04:23:57.930Z,12.95
2022-07-27T04:24:57.923Z,12.98
2022-07-27T04:25:57.886Z,12.98
2022-07-27T04:26:57.872Z,12.98
2022-07-27T04:27:57.970Z,12.97
2022-07-27T04:28:57.862Z,12.97
2022-07-27T04:29:57.972Z,12.97
2022-07-27T04:30:57.892Z,12.95
2022-07-27T04:31:57.829Z,12.95
2022-07-27T04:32:57.810Z,12.94
2022-07-27T04:33:57.799Z,12.94
2022-07-27T04:34:57.783Z,12.94
2022-07-27T04:35:58.032Z,12.94
2022-07-27T04:36:57.779Z,12.93
2022-07-27T04:37:59.795Z,12.90
2022-07-27T04:38:57.750Z,12.90
2022-07-27T04:39:57.742Z,12.90
2022-07-27T04:40:58.513Z,12.87
2022-07-27T04:41:57.710Z,12.90
2022-07-27T04:42:57.692Z,12.86
2022-07-27T04:43:57.691Z,12.85
2022-07-27T04:44:57.709Z,12.86
2022-07-27T04:45:57.723Z,12.90
2022-07-27T04:46:57.653Z,12.90
2022-07-27T04:47:57.648Z,12.91
2022-07-27T04:48:57.688Z,12.91
2022-07-27T04:49:57.630Z,12.93
2022-07-27T04:50:57.603Z,12.91
2022-07-27T04:51:57.610Z,12.91
2022-07-27T04:52:57.574Z,12.91
2022-07-27T04:53:58.605Z,12.87
2022-07-27T04:54:57.573Z,12.90
2022-07-27T04:55:57.569Z,12.86
2022-07-27T04:56:57.570Z,12.90
2022-07-27T04:57:57.522Z,12.90
2022-07-27T04:58:57.510Z,12.91
2022-07-27T04:59:57.514Z,12.91
2022-07-27T05:00:57.543Z,12.91
2022-07-27T05:01:57.494Z,12.93
2022-07-27T05:02:57.482Z,12.90
2022-07-27T05:03:57.691Z,12.93
2022-07-27T05:04:57.443Z,12.91
2022-07-27T05:05:57.444Z,12.91
2022-07-27T05:06:57.430Z,12.90
2022-07-27T05:07:57.436Z,12.91
2022-07-27T05:08:57.403Z,12.93
2022-07-27T05:09:57.403Z,12.94
2022-07-27T05:10:57.415Z,12.97
2022-07-27T05:11:57.374Z,12.97
2022-07-27T05:12:57.343Z,12.98
2022-07-27T05:13:57.354Z,13.00
2022-07-27T05:14:57.337Z,13.00
2022-07-27T05:15:57.339Z,13.01
2022-07-27T05:16:57.436Z,13.03
2022-07-27T05:17:57.316Z,13.03
2022-07-27T05:18:57.307Z,13.04
2022-07-27T05:19:57.283Z,13.09
2022-07-27T05:20:57.277Z,13.11
2022-07-27T05:21:57.275Z,13.09
2022-07-27T05:22:57.255Z,13.12
2022-07-27T05:23:57.383Z,13.11
2022-07-27T05:24:57.215Z,13.12
2022-07-27T05:25:57.222Z,13.13
2022-07-27T05:26:57.207Z,13.13
2022-07-27T05:27:57.207Z,13.16
2022-07-27T05:28:57.175Z,13.19
2022-07-27T05:29:57.195Z,13.20
2022-07-27T05:30:57.187Z,13.25
2022-07-27T05:31:57.310Z,13.27
2022-07-27T05:32:57.140Z,13.28
2022-07-27T05:33:58.348Z,13.30
2022-07-27T05:34:57.107Z,13.33
2022-07-27T05:35:57.113Z,13.35
2022-07-27T05:36:57.102Z,13.41
2022-07-27T05:37:57.088Z,13.41
2022-07-27T05:38:57.077Z,13.41
2022-07-27T05:39:57.078Z,13.44
2022-07-27T05:40:57.057Z,13.46
2022-07-27T05:41:57.047Z,13.49
2022-07-27T05:42:57.026Z,13.50
2022-07-27T05:43:57.029Z,13.54
2022-07-27T05:44:56.995Z,13.56
2022-07-27T05:45:57.009Z,13.59
2022-07-27T05:46:56.988Z,13.63
2022-07-27T05:47:56.979Z,13.68
2022-07-27T05:48:57.277Z,13.70
2022-07-27T05:49:56.966Z,13.71
2022-07-27T05:50:56.943Z,13.74
2022-07-27T05:51:56.948Z,13.72
2022-07-27T05:52:56.915Z,13.72
2022-07-27T05:53:56.915Z,13.77
2022-07-27T05:54:56.911Z,13.78
2022-07-27T05:55:59.234Z,13.79
2022-07-27T05:56:56.877Z,13.85
2022-07-27T05:57:56.848Z,13.90
2022-07-27T05:58:56.849Z,13.93
2022-07-27T05:59:56.829Z,13.95
2022-07-27T06:00:56.921Z,14.00
2022-07-27T06:01:56.827Z,14.08
2022-07-27T06:02:56.802Z,14.14
2022-07-27T06:03:57.155Z,14.20
2022-07-27T06:04:56.827Z,14.25
2022-07-27T06:05:56.761Z,14.26
2022-07-27T06:06:56.749Z,14.32
2022-07-27T06:07:56.761Z,14.35
2022-07-27T06:08:56.739Z,14.41
2022-07-27T06:09:56.722Z,14.44
2022-07-27T06:10:56.709Z,14.50
2022-07-27T06:11:56.700Z,14.53
2022-07-27T06:12:56.688Z,14.54
2022-07-27T06:13:56.692Z,14.60
2022-07-27T06:14:56.672Z,14.66
2022-07-27T06:15:56.660Z,14.73
2022-07-27T06:16:56.682Z,14.73
2022-07-27T06:17:56.639Z,14.78
2022-07-27T06:18:56.619Z,14.79
2022-07-27T06:19:56.613Z,14.82
2022-07-27T06:20:56.601Z,14.86
2022-07-27T06:21:56.621Z,14.91
2022-07-27T06:22:56.580Z,14.94
2022-07-27T06:23:56.604Z,14.99
2022-07-27T06:24:56.572Z,15.00
2022-07-27T06:25:56.552Z,14.99
2022-07-27T06:26:56.533Z,15.04
2022-07-27T06:27:56.861Z,15.09
2022-07-27T06:28:56.501Z,15.15
2022-07-27T06:29:56.502Z,15.19
2022-07-27T06:30:56.484Z,15.24
2022-07-27T06:31:56.516Z,15.24
2022-07-27T06:32:56.495Z,15.27
2022-07-27T06:33:56.471Z,15.27
2022-07-27T06:34:56.432Z,15.29
2022-07-27T06:35:56.453Z,15.33
2022-07-27T06:36:56.423Z,15.37
2022-07-27T06:37:56.412Z,15.39
2022-07-27T06:38:56.393Z,15.40
2022-07-27T06:39:56.392Z,15.39
2022-07-27T06:40:56.427Z,15.37
2022-07-27T06:41:58.371Z,15.39
2022-07-27T06:42:56.366Z,15.42
2022-07-27T06:43:56.352Z,15.42
2022-07-27T06:44:56.345Z,15.42
2022-07-27T06:45:56.325Z,15.42
2022-07-27T06:46:56.354Z,15.39
2022-07-27T06:47:56.304Z,15.40
2022-07-27T06:48:56.324Z,15.39
2022-07-27T06:49:56.285Z,15.37
2022-07-27T06:50:56.271Z,15.42
2022-07-27T06:51:56.274Z,15.44
2022-07-27T06:52:56.845Z,15.49
2022-07-27T06:53:56.247Z,15.52
2022-07-27T06:54:56.240Z,15.57
2022-07-27T06:55:56.205Z,15.57
2022-07-27T06:56:56.219Z,15.58
2022-07-27T06:57:56.206Z,15.58
2022-07-27T06:58:56.198Z,15.59
2022-07-27T06:59:56.178Z,15.62
2022-07-27T07:00:56.198Z,15.61
2022-07-27T07:01:56.159Z,15.61
2022-07-27T07:02:56.141Z,15.64
2022-07-27T07:03:56.241Z,15.62
2022-07-27T07:04:56.106Z,15.62
2022-07-27T07:05:56.108Z,15.61
2022-07-27T07:06:56.085Z,15.64
2022-07-27T07:07:56.077Z,15.65
2022-07-27T07:08:56.077Z,15.72
2022-07-27T07:09:56.085Z,15.77
2022-07-27T07:10:56.081Z,15.84
2022-07-27T07:11:56.037Z,15.94
2022-07-27T07:12:56.334Z,16.00
2022-07-27T07:13:56.019Z,16.09
2022-07-27T07:14:56.007Z,16.12
2022-07-27T07:15:56.063Z,16.16
2022-07-27T07:16:55.966Z,16.26
2022-07-27T07:17:56.211Z,16.28
2022-07-27T07:18:55.949Z,16.20
2022-07-27T07:19:55.937Z,16.17
2022-07-27T07:20:55.930Z,16.20
2022-07-27T07:21:55.919Z,16.26
2022-07-27T07:22:55.954Z,16.28
2022-07-27T07:23:55.892Z,16.29
2022-07-27T07:25:00.714Z,16.28
2022-07-27T07:25:56.871Z,16.28
2022-07-27T07:26:55.870Z,16.32
2022-07-27T07:27:55.859Z,16.29
2022-07-27T07:28:55.859Z,16.32
2022-07-27T07:29:55.818Z,16.35
2022-07-27T07:30:55.854Z,16.41
2022-07-27T07:31:55.833Z,16.43
2022-07-27T07:32:55.814Z,16.43
2022-07-27T07:33:55.802Z,16.42
2022-07-27T07:34:55.770Z,16.39
2022-07-27T07:36:12.411Z,16.36
2022-07-27T07:36:56.749Z,16.39
2022-07-27T07:37:55.752Z,16.39
2022-07-27T07:38:55.734Z,16.38
2022-07-27T07:39:55.738Z,16.41
2022-07-27T07:40:55.734Z,16.46
2022-07-27T07:41:55.695Z,16.47
2022-07-27T07:42:55.716Z,16.50
2022-07-27T07:43:55.661Z,16.47
2022-07-27T07:44:55.759Z,16.47
2022-07-27T07:45:55.649Z,16.46
2022-07-27T07:46:55.715Z,16.43
2022-07-27T07:47:55.622Z,16.49
2022-07-27T07:48:55.690Z,16.50
2022-07-27T07:49:55.610Z,16.49
2022-07-27T07:50:55.597Z,16.53
2022-07-27T07:51:55.583Z,16.56
2022-07-27T07:52:55.742Z,16.61
2022-07-27T07:53:55.563Z,16.69
2022-07-27T07:54:55.575Z,16.75
2022-07-27T07:55:55.542Z,16.69
2022-07-27T07:56:55.534Z,16.69
2022-07-27T07:57:55.507Z,16.66
2022-07-27T07:58:55.502Z,16.57
2022-07-27T07:59:55.497Z,16.53
2022-07-27T08:00:55.488Z,16.51
2022-07-27T08:01:55.492Z,16.56
2022-07-27T08:02:55.535Z,16.53
2022-07-27T08:03:55.450Z,16.54
2022-07-27T08:04:56.093Z,16.57
2022-07-27T08:05:55.435Z,16.60
2022-07-27T08:06:55.414Z,16.68
2022-07-27T08:07:55.401Z,16.71
2022-07-27T08:08:55.408Z,16.79
2022-07-27T08:09:55.394Z,16.78
2022-07-27T08:10:55.386Z,16.79
2022-07-27T08:11:55.367Z,16.86
2022-07-27T08:12:55.355Z,16.97
2022-07-27T08:13:55.342Z,17.04
2022-07-27T08:14:55.334Z,17.08
2022-07-27T08:15:55.421Z,17.12
2022-07-27T08:16:55.308Z,17.20
2022-07-27T08:17:55.278Z,17.24
2022-07-27T08:18:55.286Z,17.24
2022-07-27T08:19:55.259Z,17.27
2022-07-27T08:20:55.276Z,17.31
2022-07-27T08:21:55.238Z,17.36
2022-07-27T08:22:55.239Z,17.26
2022-07-27T08:23:55.229Z,17.26
2022-07-27T08:24:55.221Z,17.29
2022-07-27T08:25:55.231Z,17.31
2022-07-27T08:26:55.201Z,17.38
2022-07-27T08:27:56.254Z,17.45
2022-07-27T08:28:55.179Z,17.48
2022-07-27T08:29:55.146Z,17.49
2022-07-27T08:30:55.459Z,17.51
2022-07-27T08:31:55.292Z,17.51
2022-07-27T08:32:55.334Z,17.64
2022-07-27T08:33:55.113Z,17.72
2022-07-27T08:34:55.112Z,17.83
2022-07-27T08:35:55.108Z,17.85
2022-07-27T08:36:55.106Z,17.76
2022-07-27T08:37:55.071Z,17.68
2022-07-27T08:38:55.071Z,17.68
2022-07-27T08:40:56.052Z,17.59
2022-07-27T08:41:55.019Z,17.44
2022-07-27T08:42:55.022Z,17.34
2022-07-27T08:43:55.005Z,17.29
2022-07-27T08:44:55.002Z,17.27
2022-07-27T08:45:54.979Z,17.26
2022-07-27T08:46:55.008Z,17.22
2022-07-27T08:47:54.952Z,17.08
2022-07-27T08:48:55.009Z,16.99
2022-07-27T08:49:54.957Z,16.90
2022-07-27T08:50:54.922Z,16.84
2022-07-27T08:51:54.921Z,16.76
2022-07-27T08:52:54.904Z,16.74
2022-07-27T08:53:54.891Z,16.69
2022-07-27T08:54:54.895Z,16.69
2022-07-27T08:55:54.866Z,16.68
2022-07-27T08:56:54.883Z,16.72
2022-07-27T08:57:57.841Z,16.83
2022-07-27T08:58:55.835Z,16.91
2022-07-27T08:59:54.835Z,17.04
2022-07-27T09:00:54.822Z,17.16
2022-07-27T09:01:54.848Z,17.30
2022-07-27T09:02:54.855Z,17.52
2022-07-27T09:03:54.798Z,17.79
2022-07-27T09:04:54.783Z,17.97
2022-07-27T09:05:54.796Z,18.13
2022-07-27T09:06:54.767Z,18.26
2022-07-27T09:07:54.743Z,18.33
2022-07-27T09:08:54.734Z,18.34
2022-07-27T09:09:54.711Z,18.22
2022-07-27T09:10:54.924Z,18.13
2022-07-27T09:11:54.695Z,18.20
2022-07-27T09:12:54.687Z,18.29
2022-07-27T09:13:54.675Z,18.37
2022-07-27T09:14:54.666Z,18.40
2022-07-27T09:16:16.731Z,18.40
2022-07-27T09:17:45.955Z,18.40
2022-07-27T09:17:55.661Z,18.37
2022-07-27T09:18:54.639Z,18.40
2022-07-27T09:19:54.601Z,18.49
2022-07-27T09:20:54.595Z,18.62
2022-07-27T09:21:54.668Z,18.77
2022-07-27T09:22:54.568Z,18.92
2022-07-27T09:23:54.572Z,18.98
2022-07-27T09:24:54.568Z,19.02
2022-07-27T09:26:04.332Z,19.08
2022-07-27T09:26:55.528Z,19.11
2022-07-27T09:27:54.508Z,19.00
2022-07-27T09:28:54.507Z,18.92
2022-07-27T09:29:54.763Z,18.83
2022-07-27T09:30:54.523Z,18.73
2022-07-27T09:31:54.459Z,18.66
2022-07-27T09:32:54.459Z,18.60
2022-07-27T09:33:54.447Z,18.52
2022-07-27T09:34:54.451Z,18.43
2022-07-27T09:35:54.427Z,18.40
2022-07-27T09:36:54.421Z,18.35
2022-07-27T09:37:54.392Z,18.33
2022-07-27T09:39:00.000Z,18.37
2022-07-27T09:39:55.393Z,18.33
2022-07-27T09:40:54.372Z,18.23
2022-07-27T09:41:55.256Z,18.20
2022-07-27T09:43:08.882Z,18.29
2022-07-27T09:44:56.603Z,18.23
2022-07-27T09:45:54.312Z,18.38
2022-07-27T09:46:54.370Z,18.50
2022-07-27T09:47:54.292Z,18.49
2022-07-27T09:48:54.321Z,18.43
2022-07-27T09:49:54.271Z,18.45
2022-07-27T09:51:02.147Z,18.47
2022-07-27T09:52:00.175Z,18.47
2022-07-27T09:52:55.244Z,18.33
2022-07-27T09:53:54.213Z,18.23
2022-07-27T09:54:54.244Z,18.10
2022-07-27T09:55:58.810Z,18.03
2022-07-27T09:56:55.193Z,17.97
2022-07-27T09:57:54.181Z,17.89
2022-07-27T09:58:54.172Z,17.87
2022-07-27T09:59:54.253Z,17.85
2022-07-27T10:00:54.145Z,17.79
2022-07-27T10:01:54.968Z,17.79
2022-07-27T10:02:54.145Z,17.76
2022-07-27T10:03:54.107Z,17.78
2022-07-27T10:04:54.145Z,17.79
2022-07-27T10:05:54.095Z,17.80
2022-07-27T10:07:02.868Z,17.80
2022-07-27T10:07:55.064Z,17.80
2022-07-27T10:08:54.065Z,17.76
2022-07-27T10:09:54.057Z,17.76
2022-07-27T10:10:54.044Z,17.80
2022-07-27T10:11:54.024Z,17.79
2022-07-27T10:12:55.492Z,17.79
2022-07-27T10:13:54.013Z,17.79
2022-07-27T10:14:53.997Z,17.82
2022-07-27T10:15:54.071Z,17.80
2022-07-27T10:16:53.967Z,17.82
2022-07-27T10:17:53.958Z,17.82
2022-07-27T10:18:55.645Z,17.83
2022-07-27T10:19:53.938Z,17.82
2022-07-27T10:20:53.950Z,17.85
2022-07-27T10:21:53.948Z,17.85
2022-07-27T10:22:53.897Z,17.89
2022-07-27T10:23:53.888Z,17.90
2022-07-27T10:24:53.900Z,17.94
2022-07-27T10:25:53.894Z,17.95
2022-07-27T10:26:53.861Z,17.92
2022-07-27T10:27:53.829Z,17.94
2022-07-27T10:28:53.843Z,17.95
2022-07-27T10:29:53.821Z,18.04
2022-07-27T10:30:54.727Z,18.08
2022-07-27T10:31:53.795Z,18.15
2022-07-27T10:32:53.801Z,18.20
2022-07-27T10:33:53.769Z,18.23
2022-07-27T10:34:53.770Z,18.26
2022-07-27T10:35:53.768Z,18.29
2022-07-27T10:36:53.753Z,18.33
2022-07-27T10:37:53.721Z,18.37
2022-07-27T10:38:53.721Z,18.41
2022-07-27T10:39:53.702Z,18.43
2022-07-27T10:40:53.821Z,18.38
2022-07-27T10:41:53.783Z,18.41
2022-07-27T10:42:54.833Z,18.45
2022-07-27T10:43:53.781Z,18.52
2022-07-27T10:44:53.669Z,18.59
2022-07-27T10:46:01.735Z,18.68
2022-07-27T10:46:54.691Z,18.80
2022-07-27T10:47:53.623Z,18.86
2022-07-27T10:48:53.658Z,18.89
2022-07-27T10:49:53.586Z,18.84
2022-07-27T10:50:53.594Z,18.84
2022-07-27T10:51:53.594Z,18.83
2022-07-27T10:52:53.587Z,18.81
2022-07-27T10:54:11.877Z,18.78
2022-07-27T10:54:59.830Z,18.73
2022-07-27T10:55:54.516Z,18.70
2022-07-27T10:56:53.554Z,18.73
2022-07-27T10:57:53.522Z,18.73
2022-07-27T10:58:53.506Z,18.73
2022-07-27T11:00:12.368Z,18.81
2022-07-27T11:00:55.590Z,18.95
2022-07-27T11:01:53.503Z,19.09
2022-07-27T11:02:53.468Z,19.26
2022-07-27T11:03:53.505Z,19.40
2022-07-27T11:04:53.515Z,19.48
2022-07-27T11:06:00.098Z,19.48
2022-07-27T11:07:23.010Z,19.54
2022-07-27T11:08:23.856Z,19.59
2022-07-27T11:09:27.420Z,19.69
2022-07-27T11:10:09.687Z,19.86
2022-07-27T11:10:54.877Z,20.13
2022-07-27T11:11:53.368Z,20.37
2022-07-27T11:12:53.351Z,20.65
2022-07-27T11:13:53.334Z,20.84
2022-07-27T11:14:53.350Z,21.09
2022-07-27T11:15:59.753Z,21.18
2022-07-27T11:16:56.625Z,20.92
2022-07-27T11:18:00.414Z,20.90
2022-07-27T11:18:54.358Z,20.87
2022-07-27T11:19:53.278Z,20.81
2022-07-27T11:20:53.262Z,20.63
2022-07-27T11:21:53.250Z,20.55
2022-07-27T11:23:40.673Z,20.50
2022-07-27T11:23:54.223Z,20.37
2022-07-27T11:24:53.223Z,20.22
2022-07-27T11:25:53.203Z,20.11
2022-07-27T11:26:53.204Z,19.95
2022-07-27T11:27:53.183Z,19.89
2022-07-27T11:28:53.183Z,19.84
2022-07-27T11:29:53.162Z,19.69
2022-07-27T11:30:53.261Z,19.59
2022-07-27T11:31:55.807Z,19.48
2022-07-27T11:32:53.136Z,19.40
2022-07-27T11:33:53.119Z,19.36
2022-07-27T11:34:53.130Z,19.39
2022-07-27T11:35:53.095Z,19.41
2022-07-27T11:36:53.104Z,19.44
2022-07-27T11:37:53.095Z,19.45
2022-07-27T11:38:53.075Z,19.56
2022-07-27T11:40:03.068Z,19.64
2022-07-27T11:40:57.979Z,19.70
2022-07-27T11:42:08.800Z,19.82
2022-07-27T11:42:54.027Z,19.91
2022-07-27T11:43:53.027Z,19.94
2022-07-27T11:44:53.481Z,20.11
2022-07-27T11:45:53.034Z,20.34
2022-07-27T11:46:52.975Z,20.51
2022-07-27T11:47:52.990Z,20.63
2022-07-27T11:49:09.209Z,20.70
2022-07-27T11:49:53.992Z,20.74
2022-07-27T11:50:53.000Z,20.87
2022-07-27T11:51:52.916Z,20.99
2022-07-27T11:52:52.927Z,21.20
2022-07-27T11:53:52.899Z,21.27
2022-07-27T11:54:52.982Z,21.27
2022-07-27T11:55:52.890Z,21.20
2022-07-27T11:56:52.847Z,21.22
2022-07-27T11:57:53.033Z,21.18
2022-07-27T11:58:52.839Z,21.27
2022-07-27T11:59:52.839Z,21.30
2022-07-27T12:00:52.821Z,21.29
2022-07-27T12:01:52.955Z,21.24
2022-07-27T12:02:52.841Z,21.20
2022-07-27T12:03:52.819Z,21.06
2022-07-27T12:04:52.869Z,20.88
2022-07-27T12:05:52.781Z,20.78
2022-07-27T12:06:52.755Z,20.59
2022-07-27T12:07:52.767Z,20.40
2022-07-27T12:08:52.748Z,20.22
2022-07-27T12:09:52.753Z,20.04
2022-07-27T12:10:52.925Z,19.91
2022-07-27T12:11:52.712Z,19.85
2022-07-27T12:12:52.705Z,19.82
2022-07-27T12:13:52.692Z,19.82
2022-07-27T12:14:52.744Z,19.73
2022-07-27T12:15:52.657Z,19.67
2022-07-27T12:16:52.674Z,19.63
2022-07-27T12:17:52.645Z,19.55
2022-07-27T12:18:52.621Z,19.52
2022-07-27T12:19:52.644Z,19.49
2022-07-27T12:20:52.596Z,19.48
2022-07-27T12:21:52.603Z,19.55
2022-07-27T12:22:52.595Z,19.59
2022-07-27T12:23:52.668Z,19.59
2022-07-27T12:24:52.604Z,19.67
2022-07-27T12:25:52.559Z,19.89
2022-07-27T12:26:52.536Z,19.96
2022-07-27T12:27:52.524Z,20.14
2022-07-27T12:28:52.505Z,20.50
2022-07-27T12:29:52.525Z,20.90
2022-07-27T12:30:52.644Z,21.32
2022-07-27T12:31:52.496Z,21.73
2022-07-27T12:32:55.521Z,22.15
2022-07-27T12:34:05.201Z,22.41
2022-07-27T12:34:53.469Z,22.47
2022-07-27T12:35:52.448Z,22.43
2022-07-27T12:36:52.428Z,22.25
2022-07-27T12:37:52.417Z,21.89
2022-07-27T12:38:52.396Z,21.51
2022-07-27T12:39:52.409Z,21.30
2022-07-27T12:40:56.772Z,20.97
2022-07-27T12:41:53.368Z,20.75
2022-07-27T12:42:52.350Z,20.60
2022-07-27T12:43:52.380Z,20.50
2022-07-27T12:44:52.394Z,20.43
2022-07-27T12:45:52.370Z,20.24
2022-07-27T12:46:52.309Z,20.18
2022-07-27T12:47:52.310Z,20.13
2022-07-27T12:48:52.341Z,20.10
2022-07-27T12:49:52.281Z,20.00
2022-07-27T12:50:52.313Z,20.02
2022-07-27T12:51:52.261Z,20.02
2022-07-27T12:52:52.239Z,19.92
2022-07-27T12:53:52.242Z,19.88